createdAt,value
2019-02-19T00:00:20.932Z,14.60
2019-02-19T00:01:20.837Z,14.50
2019-02-19T00:02:20.751Z,13.90
2019-02-19T00:03:20.761Z,14.40
2019-02-19T00:04:20.532Z,14.70
2019-02-19T00:05:20.438Z,14.70
2019-02-19T00:06:20.336Z,15.30
2019-02-19T00:07:20.253Z,15.50
2019-02-19T00:08:20.135Z,14.80
2019-02-19T00:09:20.030Z,15.50
2019-02-19T00:10:19.993Z,15.10
2019-02-19T00:11:19.833Z,15.80
2019-02-19T00:12:19.750Z,15.40
2019-02-19T00:13:19.632Z,14.50
2019-02-19T00:14:19.533Z,14.50
2019-02-19T00:15:19.430Z,14.70
2019-02-19T00:16:19.334Z,14.80
2019-02-19T00:17:19.232Z,14.30
2019-02-19T00:18:19.149Z,15.30
2019-02-19T00:19:19.037Z,14.60
2019-02-19T00:20:18.929Z,15.70
2019-02-19T00:21:18.829Z,15.10
2019-02-19T00:22:18.740Z,14.80
2019-02-19T00:23:18.649Z,15.20
2019-02-19T00:24:18.536Z,14.90
2019-02-19T00:25:18.432Z,15.60
2019-02-19T00:26:18.332Z,15.60
2019-02-19T00:27:18.231Z,15.60
2019-02-19T00:28:18.145Z,16.30
2019-02-19T00:29:18.025Z,16.80
2019-02-19T00:30:17.931Z,16.20
2019-02-19T00:31:17.829Z,16.10
2019-02-19T00:32:17.732Z,16.50
2019-02-19T00:33:17.650Z,16.70
2019-02-19T00:34:17.528Z,15.90
2019-02-19T00:35:17.427Z,17.00
2019-02-19T00:36:17.325Z,18.10
2019-02-19T00:37:17.229Z,16.90
2019-02-19T00:38:17.145Z,16.90
2019-02-19T00:39:17.027Z,16.50
2019-02-19T00:40:16.925Z,17.20
2019-02-19T00:41:16.826Z,16.40
2019-02-19T00:42:16.726Z,16.60
2019-02-19T00:43:16.661Z,17.20
2019-02-19T00:44:16.525Z,16.60
2019-02-19T00:45:17.010Z,16.70
2019-02-19T00:46:16.322Z,16.70
2019-02-19T00:47:16.224Z,16.00
2019-02-19T00:48:16.139Z,16.60
2019-02-19T00:49:16.026Z,17.20
2019-02-19T00:50:15.927Z,16.50
2019-02-19T00:51:15.824Z,17.10
2019-02-19T00:52:15.723Z,16.40
2019-02-19T00:53:15.644Z,16.40
2019-02-19T00:54:15.520Z,16.30
2019-02-19T00:55:15.422Z,16.90
2019-02-19T00:56:15.320Z,17.60
2019-02-19T00:57:15.218Z,16.80
2019-02-19T00:58:15.139Z,17.10
2019-02-19T00:59:15.017Z,16.30
2019-02-19T01:00:14.918Z,16.70
2019-02-19T01:01:14.817Z,16.30
2019-02-19T01:02:14.720Z,16.40
2019-02-19T01:03:14.633Z,16.70
2019-02-19T01:04:14.520Z,16.50
2019-02-19T01:05:14.416Z,16.10
2019-02-19T01:06:14.322Z,16.60
2019-02-19T01:07:14.218Z,15.90
2019-02-19T01:08:14.131Z,15.90
2019-02-19T01:09:14.014Z,16.00
2019-02-19T01:10:13.914Z,16.00
2019-02-19T01:11:13.815Z,16.00
2019-02-19T01:12:13.719Z,15.70
2019-02-19T01:13:13.731Z,15.90
2019-02-19T01:14:13.515Z,16.40
2019-02-19T01:15:13.415Z,16.30
2019-02-19T01:16:13.313Z,15.20
2019-02-19T01:17:13.213Z,15.30
2019-02-19T01:18:13.129Z,15.70
2019-02-19T01:19:13.013Z,16.50
2019-02-19T01:20:12.911Z,15.50
2019-02-19T01:21:12.810Z,15.40
2019-02-19T01:22:12.712Z,16.30
2019-02-19T01:23:12.630Z,15.70
2019-02-19T01:24:12.513Z,15.30
2019-02-19T01:25:12.410Z,16.40
2019-02-19T01:26:12.312Z,16.20
2019-02-19T01:27:12.317Z,16.00
2019-02-19T01:28:12.128Z,15.80
2019-02-19T01:29:12.010Z,15.80
2019-02-19T01:30:11.914Z,16.10
2019-02-19T01:31:11.811Z,14.90
2019-02-19T01:32:11.708Z,16.00
2019-02-19T01:33:11.627Z,15.60
2019-02-19T01:34:11.614Z,15.10
2019-02-19T01:35:11.413Z,15.30
2019-02-19T01:36:11.306Z,16.40
2019-02-19T01:37:11.209Z,15.60
2019-02-19T01:38:11.123Z,16.50
2019-02-19T01:39:11.011Z,15.40
2019-02-19T01:40:10.912Z,16.70
2019-02-19T01:41:10.924Z,18.90
2019-02-19T01:42:10.708Z,17.10
2019-02-19T01:43:10.628Z,16.80
2019-02-19T01:44:10.504Z,16.30
2019-02-19T01:45:10.405Z,16.10
2019-02-19T01:46:10.306Z,15.80
2019-02-19T01:47:10.203Z,16.90
2019-02-19T01:48:10.220Z,17.60
2019-02-19T01:49:10.005Z,16.10
2019-02-19T01:50:09.906Z,16.60
2019-02-19T01:51:09.803Z,16.50
2019-02-19T01:52:09.705Z,16.70
2019-02-19T01:53:09.630Z,16.70
2019-02-19T01:54:09.500Z,17.10
2019-02-19T01:55:09.514Z,17.00
2019-02-19T01:56:09.295Z,17.40
2019-02-19T01:57:09.205Z,16.60
2019-02-19T01:58:09.114Z,16.90
2019-02-19T01:59:09.001Z,17.40
2019-02-19T02:00:08.899Z,16.90
2019-02-19T02:01:08.797Z,16.50
2019-02-19T02:02:08.796Z,17.20
2019-02-19T02:03:08.617Z,17.50
2019-02-19T02:04:08.496Z,17.10
2019-02-19T02:05:08.395Z,16.70
2019-02-19T02:06:08.296Z,16.60
2019-02-19T02:07:08.197Z,16.70
2019-02-19T02:08:08.096Z,16.30
2019-02-19T02:09:08.100Z,15.70
2019-02-19T02:10:07.894Z,16.00
2019-02-19T02:11:07.791Z,15.70
2019-02-19T02:12:07.694Z,16.40
2019-02-19T02:13:07.591Z,16.50
2019-02-19T02:14:07.505Z,17.10
2019-02-19T02:15:07.391Z,16.30
2019-02-19T02:16:07.394Z,16.30
2019-02-19T02:17:07.187Z,15.90
2019-02-19T02:18:07.091Z,16.90
2019-02-19T02:19:07.003Z,15.80
2019-02-19T02:20:06.884Z,15.30
2019-02-19T02:21:06.791Z,16.80
2019-02-19T02:22:06.687Z,16.00
2019-02-19T02:23:06.687Z,15.90
2019-02-19T02:24:06.506Z,16.80
2019-02-19T02:25:06.381Z,16.10
2019-02-19T02:26:06.282Z,15.80
2019-02-19T02:27:06.180Z,16.40
2019-02-19T02:28:06.081Z,17.10
2019-02-19T02:29:05.994Z,17.60
2019-02-19T02:30:05.979Z,15.80
2019-02-19T02:31:05.782Z,16.40
2019-02-19T02:32:05.677Z,17.20
2019-02-19T02:33:05.577Z,16.80
2019-02-19T02:34:05.489Z,15.90
2019-02-19T02:35:05.374Z,16.40
2019-02-19T02:36:05.400Z,16.70
2019-02-19T02:37:05.174Z,16.80
2019-02-19T02:38:05.080Z,16.70
2019-02-19T02:39:04.988Z,16.30
2019-02-19T02:40:04.870Z,16.50
2019-02-19T02:41:04.770Z,15.60
2019-02-19T02:42:04.669Z,16.60
2019-02-19T02:43:04.567Z,16.60
2019-02-19T02:44:04.487Z,17.40
2019-02-19T02:45:04.376Z,16.90
2019-02-19T02:46:04.265Z,17.10
2019-02-19T02:47:04.166Z,17.50
2019-02-19T02:48:04.064Z,16.50
2019-02-19T02:49:03.980Z,17.20
2019-02-19T02:50:03.861Z,16.80
2019-02-19T02:51:03.760Z,17.10
2019-02-19T02:52:03.657Z,16.50
2019-02-19T02:53:03.559Z,17.10
2019-02-19T02:54:03.474Z,17.50
2019-02-19T02:55:03.356Z,17.50
2019-02-19T02:56:03.254Z,17.30
2019-02-19T02:57:03.156Z,17.00
2019-02-19T02:58:03.051Z,18.00
2019-02-19T02:59:02.968Z,17.30
2019-02-19T03:00:02.850Z,17.00
2019-02-19T03:01:02.749Z,18.50
2019-02-19T03:02:02.647Z,18.30
2019-02-19T03:03:02.547Z,17.20
2019-02-19T03:04:02.462Z,16.50
2019-02-19T03:05:02.346Z,17.50
2019-02-19T03:06:02.245Z,17.30
2019-02-19T03:07:02.141Z,17.60
2019-02-19T03:08:02.042Z,17.70
2019-02-19T03:09:01.956Z,18.60
2019-02-19T03:10:01.840Z,16.80
2019-02-19T03:11:01.740Z,17.30
2019-02-19T03:12:01.636Z,17.70
2019-02-19T03:13:01.534Z,17.20
2019-02-19T03:14:01.455Z,18.10
2019-02-19T03:15:01.331Z,17.50
2019-02-19T03:16:02.644Z,18.10
2019-02-19T03:17:01.130Z,18.20
2019-02-19T03:18:01.026Z,18.30
2019-02-19T03:19:00.945Z,17.60
2019-02-19T03:20:00.977Z,16.90
2019-02-19T03:21:00.726Z,18.80
2019-02-19T03:22:00.624Z,17.30
2019-02-19T03:23:00.524Z,18.40
2019-02-19T03:24:00.454Z,17.70
2019-02-19T03:25:00.384Z,17.30
2019-02-19T03:26:00.216Z,17.40
2019-02-19T03:27:00.123Z,17.70
2019-02-19T03:28:00.013Z,17.80
2019-02-19T03:28:59.929Z,17.70
2019-02-19T03:29:59.814Z,17.60
2019-02-19T03:30:59.715Z,18.60
2019-02-19T03:31:59.613Z,18.00
2019-02-19T03:32:59.511Z,18.00
2019-02-19T03:33:59.420Z,18.80
2019-02-19T03:34:59.302Z,17.70
2019-02-19T03:35:59.200Z,17.70
2019-02-19T03:36:59.098Z,18.10
2019-02-19T03:37:59.002Z,19.00
2019-02-19T03:38:59.015Z,19.00
2019-02-19T03:39:58.795Z,19.00
2019-02-19T03:40:58.695Z,19.90
2019-02-19T03:41:58.593Z,18.40
2019-02-19T03:42:58.493Z,19.10
2019-02-19T03:43:58.405Z,19.50
2019-02-19T03:44:58.289Z,18.80
2019-02-19T03:45:58.193Z,19.10
2019-02-19T03:46:58.084Z,19.80
2019-02-19T03:47:57.985Z,20.20
2019-02-19T03:48:57.887Z,19.30
2019-02-19T03:49:57.797Z,20.50
2019-02-19T03:50:57.680Z,19.40
2019-02-19T03:51:57.577Z,20.10
2019-02-19T03:52:57.589Z,19.80
2019-02-19T03:53:57.374Z,19.60
2019-02-19T03:54:57.289Z,19.00
2019-02-19T03:55:57.166Z,19.10
2019-02-19T03:56:57.068Z,19.90
2019-02-19T03:57:56.967Z,19.80
2019-02-19T03:58:56.873Z,19.40
2019-02-19T03:59:56.881Z,19.80
2019-02-19T04:00:56.661Z,19.50
2019-02-19T04:01:56.578Z,19.50
2019-02-19T04:02:56.460Z,19.70
2019-02-19T04:03:56.360Z,18.60
2019-02-19T04:04:56.269Z,19.90
2019-02-19T04:05:56.151Z,20.70
2019-02-19T04:06:56.175Z,19.90
2019-02-19T04:07:55.945Z,20.40
2019-02-19T04:08:55.850Z,20.50
2019-02-19T04:09:55.758Z,20.40
2019-02-19T04:10:55.643Z,20.20
2019-02-19T04:11:55.545Z,20.30
2019-02-19T04:12:55.435Z,20.00
2019-02-19T04:13:55.438Z,20.60
2019-02-19T04:14:55.253Z,19.00
2019-02-19T04:15:55.132Z,20.80
2019-02-19T04:16:55.033Z,19.80
2019-02-19T04:17:54.936Z,20.20
2019-02-19T04:18:54.828Z,20.30
2019-02-19T04:19:54.740Z,21.50
2019-02-19T04:20:54.716Z,21.00
2019-02-19T04:21:54.523Z,20.80
2019-02-19T04:22:54.423Z,20.80
2019-02-19T04:23:54.317Z,20.70
2019-02-19T04:24:54.231Z,21.10
2019-02-19T04:25:54.116Z,20.70
2019-02-19T04:26:54.008Z,21.70
2019-02-19T04:27:54.011Z,20.90
2019-02-19T04:28:53.807Z,19.50
2019-02-19T04:29:53.719Z,20.40
2019-02-19T04:30:53.601Z,20.80
2019-02-19T04:31:53.498Z,19.80
2019-02-19T04:32:53.406Z,20.80
2019-02-19T04:33:53.297Z,19.70
2019-02-19T04:34:53.313Z,20.20
2019-02-19T04:35:53.094Z,21.20
2019-02-19T04:36:52.994Z,21.10
2019-02-19T04:37:52.901Z,20.80
2019-02-19T04:38:52.786Z,20.50
2019-02-19T04:39:52.700Z,21.40
2019-02-19T04:40:52.582Z,20.00
2019-02-19T04:41:52.584Z,20.40
2019-02-19T04:42:52.385Z,19.70
2019-02-19T04:43:52.274Z,19.30
2019-02-19T04:44:52.188Z,20.30
2019-02-19T04:45:52.074Z,19.50
2019-02-19T04:46:51.971Z,20.70
2019-02-19T04:47:51.870Z,20.10
2019-02-19T04:48:51.876Z,20.00
2019-02-19T04:49:51.679Z,20.30
2019-02-19T04:50:51.561Z,20.70
2019-02-19T04:51:51.461Z,20.40
2019-02-19T04:52:51.357Z,20.30
2019-02-19T04:53:51.254Z,20.00
2019-02-19T04:54:51.172Z,21.00
2019-02-19T04:55:51.152Z,21.30
2019-02-19T04:56:50.948Z,19.90
2019-02-19T04:57:50.854Z,19.40
2019-02-19T04:58:50.747Z,19.60
2019-02-19T04:59:50.658Z,19.70
2019-02-19T05:00:50.545Z,19.60
2019-02-19T05:01:50.440Z,19.90
2019-02-19T05:02:51.622Z,20.90
2019-02-19T05:03:50.233Z,20.40
2019-02-19T05:04:50.151Z,20.30
2019-02-19T05:05:50.031Z,19.20
2019-02-19T05:06:49.929Z,18.30
2019-02-19T05:07:49.827Z,18.30
2019-02-19T05:08:49.726Z,18.70
2019-02-19T05:09:49.647Z,19.40
2019-02-19T05:10:49.522Z,19.20
2019-02-19T05:11:49.421Z,18.80
2019-02-19T05:12:49.315Z,19.20
2019-02-19T05:13:49.216Z,18.70
2019-02-19T05:14:49.113Z,19.60
2019-02-19T05:15:49.036Z,19.70
2019-02-19T05:16:48.914Z,21.20
2019-02-19T05:17:48.810Z,20.70
2019-02-19T05:18:48.705Z,20.40
2019-02-19T05:19:48.614Z,19.50
2019-02-19T05:20:48.514Z,19.70
2019-02-19T05:21:48.399Z,20.20
2019-02-19T05:22:48.295Z,19.60
2019-02-19T05:23:48.191Z,19.70
2019-02-19T05:24:48.094Z,19.50
2019-02-19T05:25:48.004Z,20.00
2019-02-19T05:26:47.887Z,19.10
2019-02-19T05:27:47.785Z,18.50
2019-02-19T05:28:47.682Z,19.40
2019-02-19T05:29:47.580Z,19.30
2019-02-19T05:30:47.494Z,19.40
2019-02-19T05:31:47.378Z,19.50
2019-02-19T05:32:47.281Z,18.80
2019-02-19T05:33:47.176Z,20.00
2019-02-19T05:34:47.069Z,19.40
2019-02-19T05:35:46.984Z,19.40
2019-02-19T05:36:46.868Z,18.50
2019-02-19T05:37:46.764Z,18.70
2019-02-19T05:38:46.660Z,19.20
2019-02-19T05:39:46.558Z,20.70
2019-02-19T05:40:46.476Z,19.20
2019-02-19T05:41:46.356Z,20.30
2019-02-19T05:42:46.255Z,19.10
2019-02-19T05:43:46.152Z,19.60
2019-02-19T05:44:46.052Z,20.50
2019-02-19T05:45:45.965Z,20.10
2019-02-19T05:46:49.899Z,20.10
2019-02-19T05:47:45.744Z,19.70
2019-02-19T05:48:45.640Z,20.30
2019-02-19T05:49:45.538Z,19.20
2019-02-19T05:50:45.443Z,19.70
2019-02-19T05:51:45.356Z,18.40
2019-02-19T05:52:45.232Z,19.60
2019-02-19T05:53:45.135Z,19.40
2019-02-19T05:54:45.029Z,19.80
2019-02-19T05:55:44.928Z,19.90
2019-02-19T05:56:44.846Z,19.30
2019-02-19T05:57:44.722Z,19.10
2019-02-19T05:58:44.622Z,19.40
2019-02-19T05:59:44.525Z,19.40
2019-02-19T06:00:44.420Z,18.70
2019-02-19T06:01:44.331Z,19.20
2019-02-19T06:02:44.234Z,19.80
2019-02-19T06:03:44.111Z,19.30
2019-02-19T06:04:44.007Z,19.00
2019-02-19T06:05:43.908Z,19.00
2019-02-19T06:06:43.822Z,19.80
2019-02-19T06:07:43.705Z,19.60
2019-02-19T06:08:43.605Z,20.30
2019-02-19T06:09:43.503Z,19.40
2019-02-19T06:10:44.261Z,19.00
2019-02-19T06:11:43.311Z,18.50
2019-02-19T06:12:43.193Z,17.70
2019-02-19T06:13:43.091Z,18.10
2019-02-19T06:14:42.989Z,17.70
2019-02-19T06:15:42.897Z,17.90
2019-02-19T06:16:42.798Z,19.60
2019-02-19T06:17:42.683Z,18.10
2019-02-19T06:18:42.577Z,18.10
2019-02-19T06:19:42.501Z,19.70
2019-02-19T06:20:42.377Z,18.80
2019-02-19T06:21:42.289Z,19.30
2019-02-19T06:22:42.170Z,19.10
2019-02-19T06:23:42.068Z,19.30
2019-02-19T06:24:41.968Z,17.80
2019-02-19T06:25:41.865Z,19.80
2019-02-19T06:26:41.885Z,17.90
2019-02-19T06:27:41.664Z,18.00
2019-02-19T06:28:41.561Z,17.90
2019-02-19T06:29:41.455Z,18.10
2019-02-19T06:30:41.356Z,18.30
2019-02-19T06:31:41.266Z,17.80
2019-02-19T06:32:41.152Z,18.40
2019-02-19T06:33:41.051Z,18.90
2019-02-19T06:34:40.950Z,18.00
2019-02-19T06:35:40.844Z,17.30
2019-02-19T06:36:40.742Z,16.60
2019-02-19T06:37:40.657Z,16.60
2019-02-19T06:38:40.536Z,17.20
2019-02-19T06:39:40.434Z,17.10
2019-02-19T06:40:40.449Z,16.80
2019-02-19T06:41:40.252Z,18.50
2019-02-19T06:42:40.130Z,17.30
2019-02-19T06:43:40.023Z,17.20
2019-02-19T06:44:39.925Z,19.40
2019-02-19T06:45:39.829Z,17.40
2019-02-19T06:46:39.722Z,16.60
2019-02-19T06:47:39.747Z,15.90
2019-02-19T06:48:39.522Z,16.10
2019-02-19T06:49:39.414Z,17.90
2019-02-19T06:50:39.311Z,17.40
2019-02-19T06:51:39.210Z,17.50
2019-02-19T06:52:39.124Z,18.20
2019-02-19T06:53:39.008Z,17.70
2019-02-19T06:54:39.009Z,18.60
2019-02-19T06:55:38.803Z,17.60
2019-02-19T06:56:38.702Z,17.70
2019-02-19T06:57:38.618Z,17.30
2019-02-19T06:58:38.498Z,17.30
2019-02-19T06:59:38.396Z,17.60
2019-02-19T07:00:38.292Z,17.40
2019-02-19T07:01:38.294Z,17.30
2019-02-19T07:02:38.104Z,16.90
2019-02-19T07:03:37.984Z,18.00
2019-02-19T07:04:37.885Z,16.60
2019-02-19T07:05:37.780Z,17.20
2019-02-19T07:06:37.682Z,16.30
2019-02-19T07:07:37.593Z,17.10
2019-02-19T07:08:37.578Z,16.50
2019-02-19T07:09:37.374Z,15.40
2019-02-19T07:10:37.338Z,15.60
2019-02-19T07:11:37.177Z,15.20
2019-02-19T07:12:37.086Z,14.70
2019-02-19T07:13:36.969Z,14.20
2019-02-19T07:14:36.865Z,14.10
2019-02-19T07:15:36.869Z,14.10
2019-02-19T07:16:36.664Z,13.70
2019-02-19T07:17:36.590Z,13.70
2019-02-19T07:18:36.459Z,14.00
2019-02-19T07:19:36.357Z,13.60
2019-02-19T07:20:36.260Z,13.50
2019-02-19T07:21:36.161Z,14.00
2019-02-19T07:22:36.174Z,13.50
2019-02-19T07:23:35.955Z,13.60
2019-02-19T07:24:35.858Z,13.00
2019-02-19T07:25:35.753Z,13.70
2019-02-19T07:26:35.654Z,13.40
2019-02-19T07:27:35.570Z,13.10
2019-02-19T07:28:35.453Z,13.30
2019-02-19T07:29:35.452Z,12.70
2019-02-19T07:30:35.250Z,13.20
2019-02-19T07:31:35.151Z,12.90
2019-02-19T07:32:35.066Z,14.70
2019-02-19T07:33:34.951Z,11.80
2019-02-19T07:34:34.850Z,12.80
2019-02-19T07:35:34.749Z,13.20
2019-02-19T07:36:34.774Z,16.10
2019-02-19T07:37:34.552Z,23.80
2019-02-19T07:38:34.475Z,23.10
2019-02-19T07:39:34.353Z,28.10
2019-02-19T07:40:34.252Z,28.30
2019-02-19T07:41:34.156Z,28.60
2019-02-19T07:42:34.196Z,23.10
2019-02-19T07:43:33.958Z,22.20
2019-02-19T07:44:33.858Z,20.20
2019-02-19T07:45:33.763Z,18.00
2019-02-19T07:46:33.665Z,15.40
2019-02-19T07:47:33.565Z,14.50
2019-02-19T07:48:33.479Z,15.30
2019-02-19T07:49:33.366Z,13.90
2019-02-19T07:50:33.273Z,15.20
2019-02-19T07:51:33.171Z,15.40
2019-02-19T07:52:33.078Z,13.50
2019-02-19T07:53:32.998Z,13.20
2019-02-19T07:54:32.879Z,15.00
2019-02-19T07:55:33.040Z,15.10
2019-02-19T07:56:32.685Z,14.90
2019-02-19T07:57:32.589Z,14.50
2019-02-19T07:58:32.512Z,14.70
2019-02-19T07:59:32.400Z,14.90
2019-02-19T08:00:32.302Z,14.70
2019-02-19T08:01:32.206Z,15.50
2019-02-19T08:02:32.109Z,16.00
2019-02-19T08:03:32.027Z,16.10
2019-02-19T08:04:31.914Z,15.70
2019-02-19T08:05:31.824Z,16.30
2019-02-19T08:06:31.722Z,16.60
2019-02-19T08:07:31.629Z,17.40
2019-02-19T08:08:31.548Z,16.80
2019-02-19T08:09:31.438Z,15.00
2019-02-19T08:10:31.343Z,17.20
2019-02-19T08:11:31.246Z,15.70
2019-02-19T08:12:31.151Z,17.30
2019-02-19T08:13:31.071Z,17.30
2019-02-19T08:14:30.959Z,17.50
2019-02-19T08:15:30.879Z,16.80
2019-02-19T08:16:30.771Z,16.00
2019-02-19T08:17:33.352Z,17.40
2019-02-19T08:18:30.599Z,16.90
2019-02-19T08:19:30.486Z,15.30
2019-02-19T08:20:30.393Z,17.20
2019-02-19T08:21:30.300Z,16.60
2019-02-19T08:22:30.205Z,18.10
2019-02-19T08:23:30.113Z,16.30
2019-02-19T08:24:30.045Z,17.80
2019-02-19T08:25:29.927Z,19.70
2019-02-19T08:26:29.831Z,21.10
2019-02-19T08:27:29.733Z,19.20
2019-02-19T08:28:29.642Z,20.90
2019-02-19T08:29:29.600Z,24.10
2019-02-19T08:30:29.454Z,23.20
2019-02-19T08:31:29.358Z,25.40
2019-02-19T08:32:29.265Z,18.20
2019-02-19T08:33:29.173Z,20.90
2019-02-19T08:34:29.096Z,22.20
2019-02-19T08:35:28.987Z,18.20
2019-02-19T08:36:29.781Z,16.80
2019-02-19T08:37:28.805Z,18.80
2019-02-19T08:38:28.711Z,18.40
2019-02-19T08:39:28.628Z,21.40
2019-02-19T08:40:28.525Z,17.90
2019-02-19T08:41:28.426Z,16.60
2019-02-19T08:42:28.339Z,15.90
2019-02-19T08:43:28.241Z,16.00
2019-02-19T08:44:28.165Z,17.90
2019-02-19T08:45:28.056Z,16.30
2019-02-19T08:46:27.964Z,15.50
2019-02-19T08:47:27.881Z,16.00
2019-02-19T08:48:27.781Z,15.60
2019-02-19T08:49:27.703Z,16.20
2019-02-19T08:50:27.594Z,16.60
2019-02-19T08:51:27.500Z,15.60
2019-02-19T08:52:27.510Z,16.40
2019-02-19T08:53:27.318Z,16.10
2019-02-19T08:54:27.237Z,15.60
2019-02-19T08:55:27.128Z,15.40
2019-02-19T08:56:27.039Z,15.80
2019-02-19T08:57:26.949Z,15.20
2019-02-19T08:58:26.853Z,16.20
2019-02-19T08:59:26.779Z,15.50
2019-02-19T09:00:26.670Z,16.20
2019-02-19T09:01:26.577Z,15.70
2019-02-19T09:02:26.486Z,16.00
2019-02-19T09:03:26.391Z,15.70
2019-02-19T09:04:26.319Z,16.30
2019-02-19T09:05:26.213Z,16.60
2019-02-19T09:06:27.622Z,16.40
2019-02-19T09:07:26.027Z,16.50
2019-02-19T09:08:25.940Z,16.80
2019-02-19T09:09:25.860Z,15.80
2019-02-19T09:10:25.756Z,15.70
2019-02-19T09:11:25.663Z,16.90
2019-02-19T09:12:25.574Z,16.80
2019-02-19T09:13:25.584Z,17.80
2019-02-19T09:14:25.403Z,19.80
2019-02-19T09:15:25.294Z,17.80
2019-02-19T09:16:25.207Z,18.10
2019-02-19T09:17:25.113Z,18.80
2019-02-19T09:18:25.023Z,17.80
2019-02-19T09:19:24.949Z,22.20
2019-02-19T09:20:24.943Z,23.70
2019-02-19T09:21:24.750Z,21.30
2019-02-19T09:22:24.660Z,19.50
2019-02-19T09:23:24.564Z,22.10
2019-02-19T09:24:24.490Z,23.90
2019-02-19T09:25:24.383Z,23.30
2019-02-19T09:26:24.293Z,22.10
2019-02-19T09:27:24.319Z,20.70
2019-02-19T09:28:24.107Z,22.80
2019-02-19T09:29:24.020Z,22.50
2019-02-19T09:30:23.946Z,20.10
2019-02-19T09:31:23.832Z,20.10
2019-02-19T09:32:23.745Z,21.90
2019-02-19T09:33:23.648Z,19.80
2019-02-19T09:34:23.660Z,19.80
2019-02-19T09:35:23.482Z,19.70
2019-02-19T09:36:23.374Z,19.50
2019-02-19T09:37:23.294Z,19.10
2019-02-19T09:38:23.200Z,17.00
2019-02-19T09:39:23.101Z,17.10
2019-02-19T09:40:23.024Z,17.90
2019-02-19T09:41:23.021Z,16.60
2019-02-19T09:42:22.825Z,17.50
2019-02-19T09:43:22.730Z,19.00
2019-02-19T09:44:22.642Z,19.30
2019-02-19T09:45:22.566Z,17.70
2019-02-19T09:46:22.456Z,17.00
2019-02-19T09:47:22.367Z,15.10
2019-02-19T09:48:22.393Z,15.40
2019-02-19T09:49:22.186Z,15.20
2019-02-19T09:50:22.111Z,14.70
2019-02-19T09:51:22.001Z,14.80
2019-02-19T09:52:21.911Z,14.00
2019-02-19T09:53:21.817Z,15.40
2019-02-19T09:54:21.728Z,16.80
2019-02-19T09:55:21.755Z,16.70
2019-02-19T09:56:21.545Z,16.80
2019-02-19T09:57:21.454Z,18.30
2019-02-19T09:58:21.370Z,17.60
2019-02-19T09:59:21.265Z,16.20
2019-02-19T10:00:21.189Z,16.80
2019-02-19T10:01:21.085Z,18.30
2019-02-19T10:02:21.088Z,17.40
2019-02-19T10:03:20.894Z,17.30
2019-02-19T10:04:20.804Z,18.90
2019-02-19T10:05:20.723Z,17.90
2019-02-19T10:06:20.630Z,18.10
2019-02-19T10:07:20.521Z,17.30
2019-02-19T10:08:20.437Z,18.20
2019-02-19T10:09:20.440Z,18.40
2019-02-19T10:10:20.254Z,17.70
2019-02-19T10:11:20.144Z,18.10
2019-02-19T10:12:20.045Z,18.20
2019-02-19T10:13:19.952Z,17.50
2019-02-19T10:14:19.855Z,18.30
2019-02-19T10:15:19.779Z,17.90
2019-02-19T10:16:19.764Z,17.80
2019-02-19T10:17:19.570Z,18.30
2019-02-19T10:18:19.473Z,16.90
2019-02-19T10:19:19.377Z,17.30
2019-02-19T10:20:19.295Z,17.80
2019-02-19T10:21:19.189Z,17.30
2019-02-19T10:22:19.092Z,18.00
2019-02-19T10:23:18.994Z,18.00
2019-02-19T10:24:18.898Z,18.50
2019-02-19T10:25:18.823Z,18.40
2019-02-19T10:26:18.709Z,17.10
2019-02-19T10:27:18.612Z,18.60
2019-02-19T10:28:18.515Z,18.70
2019-02-19T10:29:18.423Z,16.70
2019-02-19T10:30:18.342Z,16.00
2019-02-19T10:31:18.228Z,18.70
2019-02-19T10:32:18.139Z,17.70
2019-02-19T10:33:18.037Z,15.80
2019-02-19T10:34:17.943Z,15.70
2019-02-19T10:35:17.861Z,15.10
2019-02-19T10:36:17.853Z,13.30
2019-02-19T10:37:17.656Z,15.00
2019-02-19T10:38:17.558Z,15.00
2019-02-19T10:39:17.463Z,13.70
2019-02-19T10:40:17.384Z,15.60
2019-02-19T10:41:17.272Z,16.80
2019-02-19T10:42:18.940Z,16.90
2019-02-19T10:43:17.080Z,15.30
2019-02-19T10:44:17.283Z,16.40
2019-02-19T10:45:16.905Z,16.70
2019-02-19T10:46:16.794Z,17.20
2019-02-19T10:47:16.698Z,16.50
2019-02-19T10:48:18.976Z,17.30
2019-02-19T10:49:16.510Z,16.80
2019-02-19T10:50:16.433Z,16.20
2019-02-19T10:51:16.319Z,15.00
2019-02-19T10:52:16.222Z,14.80
2019-02-19T10:53:16.128Z,14.40
2019-02-19T10:54:16.080Z,14.10
2019-02-19T10:55:15.955Z,9.30
2019-02-19T10:56:15.846Z,9.50
2019-02-19T10:57:15.756Z,10.00
2019-02-19T10:58:22.544Z,9.60
2019-02-19T10:59:15.568Z,9.40
2019-02-19T11:00:15.493Z,8.90
2019-02-19T11:01:15.381Z,10.20
2019-02-19T11:02:15.293Z,12.00
2019-02-19T11:03:15.200Z,9.10
2019-02-19T11:04:15.106Z,9.00
2019-02-19T11:05:15.034Z,10.00
2019-02-19T11:06:14.927Z,9.80
2019-02-19T11:07:14.836Z,9.60
2019-02-19T11:08:14.742Z,9.20
2019-02-19T11:09:14.656Z,8.90
2019-02-19T11:10:14.566Z,11.50
2019-02-19T11:11:14.487Z,9.20
2019-02-19T11:12:14.380Z,10.50
2019-02-19T11:13:14.288Z,8.90
2019-02-19T11:14:14.200Z,7.50
2019-02-19T11:15:14.121Z,7.10
2019-02-19T11:16:14.019Z,7.30
2019-02-19T11:17:13.923Z,6.90
2019-02-19T11:18:13.843Z,6.90
2019-02-19T11:19:13.755Z,6.30
2019-02-19T11:20:13.651Z,6.60
2019-02-19T11:21:19.522Z,6.50
2019-02-19T11:22:13.696Z,6.10
2019-02-19T11:23:13.376Z,5.70
2019-02-19T11:24:13.286Z,6.60
2019-02-19T11:25:13.195Z,5.90
2019-02-19T11:26:13.120Z,6.80
2019-02-19T11:27:13.008Z,7.10
2019-02-19T11:28:12.922Z,7.90
2019-02-19T11:29:12.828Z,6.40
2019-02-19T11:30:12.739Z,5.50
2019-02-19T11:31:12.656Z,7.10
2019-02-19T11:32:12.554Z,5.90
2019-02-19T11:33:12.461Z,6.50
2019-02-19T11:34:12.732Z,7.40
2019-02-19T11:35:12.270Z,7.80
2019-02-19T11:36:12.193Z,6.50
2019-02-19T11:37:12.091Z,7.00
2019-02-19T11:38:11.997Z,6.80
2019-02-19T11:39:11.902Z,7.40
2019-02-19T11:40:11.924Z,6.70
2019-02-19T11:41:11.727Z,8.10
2019-02-19T11:42:11.619Z,6.50
2019-02-19T11:43:11.523Z,7.20
2019-02-19T11:44:11.433Z,7.60
2019-02-19T11:45:11.335Z,6.30
2019-02-19T11:46:11.261Z,7.80
2019-02-19T11:47:11.250Z,8.20
2019-02-19T11:48:11.054Z,6.70
2019-02-19T11:49:10.961Z,7.20
2019-02-19T11:50:10.864Z,7.40
2019-02-19T11:51:10.789Z,8.10
2019-02-19T11:52:10.676Z,7.50
2019-02-19T11:53:10.581Z,7.50
2019-02-19T11:54:10.584Z,6.60
2019-02-19T11:55:10.389Z,7.40
2019-02-19T11:56:10.310Z,8.40
2019-02-19T11:57:10.200Z,8.30
2019-02-19T11:58:10.104Z,9.90
2019-02-19T11:59:10.009Z,7.50
2019-02-19T12:00:09.918Z,7.60
2019-02-19T12:01:09.941Z,6.90
2019-02-19T12:02:09.725Z,8.30
2019-02-19T12:03:09.628Z,8.20
2019-02-19T12:04:09.533Z,8.20
2019-02-19T12:05:09.436Z,7.90
2019-02-19T12:06:09.354Z,8.30
2019-02-19T12:07:09.245Z,8.70
2019-02-19T12:08:09.265Z,7.80
2019-02-19T12:09:09.053Z,8.30
2019-02-19T12:10:08.959Z,9.70
2019-02-19T12:11:08.880Z,8.90
2019-02-19T12:12:08.765Z,8.10
2019-02-19T12:13:08.669Z,8.30
2019-02-19T12:14:08.573Z,9.10
2019-02-19T12:15:08.576Z,8.30
2019-02-19T12:16:08.398Z,8.00
2019-02-19T12:17:08.290Z,8.90
2019-02-19T12:18:08.207Z,8.30
2019-02-19T12:19:08.095Z,7.60
2019-02-19T12:20:07.994Z,8.40
2019-02-19T12:21:07.914Z,7.90
2019-02-19T12:22:07.904Z,8.40
2019-02-19T12:23:07.707Z,8.00
2019-02-19T12:24:07.614Z,10.80
2019-02-19T12:25:07.514Z,8.50
2019-02-19T12:26:07.435Z,8.30
2019-02-19T12:27:08.877Z,8.60
2019-02-19T12:28:07.225Z,9.20
2019-02-19T12:29:07.226Z,10.10
2019-02-19T12:30:07.033Z,8.50
2019-02-19T12:31:06.953Z,9.30
2019-02-19T12:32:06.839Z,10.50
2019-02-19T12:33:06.747Z,8.90
2019-02-19T12:34:06.648Z,8.90
2019-02-19T12:35:06.553Z,9.30
2019-02-19T12:36:06.573Z,9.00
2019-02-19T12:37:06.356Z,9.20
2019-02-19T12:38:06.258Z,9.20
2019-02-19T12:39:06.160Z,9.00
2019-02-19T12:40:06.067Z,8.60
2019-02-19T12:41:05.986Z,9.00
2019-02-19T12:42:05.871Z,9.90
2019-02-19T12:43:05.880Z,9.30
2019-02-19T12:44:05.682Z,9.60
2019-02-19T12:45:05.582Z,9.10
2019-02-19T12:46:05.500Z,9.30
2019-02-19T12:47:05.389Z,8.20
2019-02-19T12:48:05.291Z,9.60
2019-02-19T12:49:05.195Z,9.60
2019-02-19T12:50:05.098Z,8.20
2019-02-19T12:51:05.018Z,9.80
2019-02-19T12:52:04.910Z,9.60
2019-02-19T12:53:04.806Z,8.70
2019-02-19T12:54:04.712Z,9.80
2019-02-19T12:55:04.611Z,10.10